createdAt,value
2018-09-02T00:00:14.918Z,18.63
2018-09-02T00:00:41.048Z,18.63
2018-09-02T00:01:07.179Z,18.6
2018-09-02T00:01:33.316Z,18.59
2018-09-02T00:01:59.447Z,18.59
2018-09-02T00:02:25.582Z,18.53
2018-09-02T00:02:51.719Z,18.5
2018-09-02T00:03:17.848Z,18.53
2018-09-02T00:03:43.985Z,18.5
2018-09-02T00:04:10.121Z,18.52
2018-09-02T00:04:36.259Z,18.5
2018-09-02T00:05:02.401Z,18.5
2018-09-02T00:05:28.548Z,18.53
2018-09-02T00:05:54.686Z,18.49
2018-09-02T00:06:20.845Z,18.53
2018-09-02T00:06:46.995Z,18.5
2018-09-02T00:07:13.138Z,18.55
2018-09-02T00:07:39.282Z,18.45
2018-09-02T00:08:05.426Z,18.49
2018-09-02T00:08:31.565Z,18.45
2018-09-02T00:08:57.744Z,18.44
2018-09-02T00:09:23.872Z,18.38
2018-09-02T00:09:50.032Z,18.43
2018-09-02T00:10:16.160Z,18.44
2018-09-02T00:10:42.297Z,18.45
2018-09-02T00:11:08.433Z,18.37
2018-09-02T00:11:34.561Z,18.44
2018-09-02T00:12:00.694Z,18.37
2018-09-02T00:12:26.832Z,18.31
2018-09-02T00:12:52.969Z,18.28
2018-09-02T00:13:19.102Z,18.26
2018-09-02T00:13:45.253Z,18.29
2018-09-02T00:14:11.388Z,18.23
2018-09-02T00:14:37.551Z,18.26
2018-09-02T00:15:03.679Z,18.28
2018-09-02T00:15:29.812Z,18.26
2018-09-02T00:15:55.955Z,18.29
2018-09-02T00:16:22.110Z,18.25
2018-09-02T00:16:48.243Z,18.26
2018-09-02T00:17:14.379Z,18.28
2018-09-02T00:17:40.533Z,18.23
2018-09-02T00:18:06.689Z,18.19
2018-09-02T00:18:32.842Z,18.29
2018-09-02T00:18:58.968Z,18.28
2018-09-02T00:19:25.145Z,18.28
2018-09-02T00:19:51.302Z,18.25
2018-09-02T00:20:17.434Z,18.29
2018-09-02T00:20:43.565Z,18.29
2018-09-02T00:21:09.725Z,18.19
2018-09-02T00:21:35.864Z,18.26
2018-09-02T00:22:02.004Z,18.29
2018-09-02T00:22:28.136Z,18.23
2018-09-02T00:22:54.266Z,18.29
2018-09-02T00:23:20.419Z,18.23
2018-09-02T00:23:46.556Z,18.26
2018-09-02T00:24:12.690Z,18.25
2018-09-02T00:24:38.831Z,18.26
2018-09-02T00:25:05.029Z,18.26
2018-09-02T00:25:31.178Z,18.2
2018-09-02T00:25:57.312Z,18.2
2018-09-02T00:26:23.442Z,18.26
2018-09-02T00:26:49.588Z,18.22
2018-09-02T00:27:15.713Z,18.18
2018-09-02T00:27:41.888Z,18.19
2018-09-02T00:28:09.443Z,18.26
2018-09-02T00:28:35.605Z,18.23
2018-09-02T00:29:01.741Z,18.22
2018-09-02T00:29:27.876Z,18.25
2018-09-02T00:29:54.005Z,18.18
2018-09-02T00:30:20.152Z,18.23
2018-09-02T00:30:46.287Z,18.19
2018-09-02T00:31:12.428Z,18.23
2018-09-02T00:31:38.575Z,18.28
2018-09-02T00:32:04.712Z,18.23
2018-09-02T00:32:30.843Z,18.23
2018-09-02T00:32:57.101Z,18.18
2018-09-02T00:33:23.272Z,18.23
2018-09-02T00:33:49.363Z,18.22
2018-09-02T00:34:15.474Z,18.23
2018-09-02T00:34:41.605Z,18.2
2018-09-02T00:35:07.743Z,18.19
2018-09-02T00:35:33.901Z,18.22
2018-09-02T00:36:00.035Z,18.18
2018-09-02T00:36:26.164Z,18.23
2018-09-02T00:36:52.323Z,18.2
2018-09-02T00:37:18.458Z,18.23
2018-09-02T00:37:44.590Z,18.11
2018-09-02T00:38:10.810Z,18.18
2018-09-02T00:38:36.942Z,18.11
2018-09-02T00:39:03.069Z,18.16
2018-09-02T00:39:29.209Z,18.18
2018-09-02T00:39:55.364Z,18.15
2018-09-02T00:40:21.520Z,18.1
2018-09-02T00:40:47.688Z,18.16
2018-09-02T00:41:13.825Z,18.1
2018-09-02T00:41:39.982Z,18.07
2018-09-02T00:42:06.142Z,18.13
2018-09-02T00:42:32.277Z,18.11
2018-09-02T00:42:58.418Z,18.15
2018-09-02T00:43:24.575Z,18.08
2018-09-02T00:43:50.714Z,18.1
2018-09-02T00:44:16.854Z,18.04
2018-09-02T00:44:42.983Z,18.01
2018-09-02T00:45:09.116Z,17.98
2018-09-02T00:45:35.249Z,18
2018-09-02T00:46:01.384Z,18.04
2018-09-02T00:46:27.521Z,18
2018-09-02T00:46:53.656Z,18.1
2018-09-02T00:47:19.794Z,18.13
2018-09-02T00:47:45.929Z,18.13
2018-09-02T00:48:12.088Z,18.07
2018-09-02T00:48:38.222Z,18.04
2018-09-02T00:49:04.388Z,18.03
2018-09-02T00:49:30.553Z,18.07
2018-09-02T00:49:56.684Z,18.04
2018-09-02T00:50:22.813Z,18.11
2018-09-02T00:50:48.950Z,18.04
2018-09-02T00:51:15.104Z,18.1
2018-09-02T00:51:41.236Z,18.04
2018-09-02T00:52:07.371Z,18.15
2018-09-02T00:52:33.506Z,18.11
2018-09-02T00:52:59.642Z,18.07
2018-09-02T00:53:25.771Z,18.07
2018-09-02T00:53:51.902Z,18.08
2018-09-02T00:54:18.085Z,18.05
2018-09-02T00:54:44.216Z,18.1
2018-09-02T00:55:10.372Z,18.07
2018-09-02T00:55:37.579Z,18.08
2018-09-02T00:56:03.637Z,18.1
2018-09-02T00:56:29.771Z,18.1
2018-09-02T00:56:55.912Z,18.04
2018-09-02T00:57:22.045Z,18.07
2018-09-02T00:57:48.178Z,18.03
2018-09-02T00:58:14.317Z,18.04
2018-09-02T00:58:40.479Z,18.07
2018-09-02T00:59:06.654Z,18.11
2018-09-02T00:59:33.185Z,18.07
2018-09-02T00:59:59.317Z,18.07
2018-09-02T01:00:25.714Z,18.05
2018-09-02T01:00:51.855Z,18.01
2018-09-02T01:01:17.983Z,17.95
2018-09-02T01:01:44.131Z,18.01
2018-09-02T01:02:10.274Z,17.92
2018-09-02T01:02:36.412Z,18.07
2018-09-02T01:03:02.561Z,18.07
2018-09-02T01:03:28.691Z,18.05
2018-09-02T01:03:55.296Z,18.01
2018-09-02T01:04:21.445Z,18.05
2018-09-02T01:04:47.601Z,18.05
2018-09-02T01:05:13.735Z,18.01
2018-09-02T01:05:39.906Z,18.04
2018-09-02T01:06:06.294Z,18.03
2018-09-02T01:06:32.422Z,18.05
2018-09-02T01:06:58.596Z,18.07
2018-09-02T01:07:24.731Z,18.07
2018-09-02T01:07:50.884Z,18.05
2018-09-02T01:08:17.380Z,18
2018-09-02T01:08:43.519Z,18.01
2018-09-02T01:09:09.686Z,18.03
2018-09-02T01:09:35.913Z,18.03
2018-09-02T01:10:02.291Z,18
2018-09-02T01:10:28.643Z,18
2018-09-02T01:10:54.768Z,18.01
2018-09-02T01:11:20.922Z,17.97
2018-09-02T01:11:47.063Z,17.97
2018-09-02T01:12:13.388Z,17.92
2018-09-02T01:12:39.540Z,17.94
2018-09-02T01:13:05.705Z,18
2018-09-02T01:13:31.843Z,17.94
2018-09-02T01:13:58.119Z,17.98
2018-09-02T01:14:24.247Z,18
2018-09-02T01:14:50.494Z,17.98
2018-09-02T01:15:16.637Z,17.83
2018-09-02T01:15:42.809Z,17.82
2018-09-02T01:16:09.293Z,17.78
2018-09-02T01:16:35.432Z,17.8
2018-09-02T01:17:01.701Z,17.79
2018-09-02T01:17:27.869Z,17.8
2018-09-02T01:17:54.025Z,17.8
2018-09-02T01:18:20.175Z,17.82
2018-09-02T01:18:46.363Z,17.74
2018-09-02T01:19:12.519Z,17.78
2018-09-02T01:19:38.685Z,17.82
2018-09-02T01:20:04.830Z,17.79
2018-09-02T01:20:30.988Z,17.79
2018-09-02T01:20:57.125Z,17.83
2018-09-02T01:21:23.737Z,17.82
2018-09-02T01:21:50.212Z,17.78
2018-09-02T01:22:16.509Z,17.86
2018-09-02T01:22:42.670Z,17.86
2018-09-02T01:23:08.915Z,17.78
2018-09-02T01:23:34.987Z,17.86
2018-09-02T01:24:01.222Z,17.79
2018-09-02T01:24:27.474Z,17.79
2018-09-02T01:24:53.648Z,17.76
2018-09-02T01:25:19.799Z,17.78
2018-09-02T01:25:46.091Z,17.76
2018-09-02T01:26:12.644Z,17.76
2018-09-02T01:26:38.783Z,17.79
2018-09-02T01:27:04.924Z,17.78
2018-09-02T01:27:31.058Z,17.8
2018-09-02T01:27:57.211Z,17.83
2018-09-02T01:28:23.377Z,17.64
2018-09-02T01:28:49.521Z,17.68
2018-09-02T01:29:16.353Z,17.56
2018-09-02T01:29:42.578Z,17.63
2018-09-02T01:30:08.738Z,17.59
2018-09-02T01:30:34.895Z,17.63
2018-09-02T01:31:01.038Z,17.63
2018-09-02T01:31:27.172Z,17.64
2018-09-02T01:31:53.309Z,17.63
2018-09-02T01:32:19.463Z,17.64
2018-09-02T01:32:45.588Z,17.6
2018-09-02T01:33:12.394Z,17.52
2018-09-02T01:33:38.515Z,17.45
2018-09-02T01:34:04.670Z,17.52
2018-09-02T01:34:30.808Z,17.48
2018-09-02T01:34:56.940Z,17.46
2018-09-02T01:35:23.080Z,17.44
2018-09-02T01:35:49.312Z,17.51
2018-09-02T01:36:15.586Z,17.48
2018-09-02T01:36:41.915Z,17.51
2018-09-02T01:37:08.070Z,17.48
2018-09-02T01:37:34.196Z,17.45
2018-09-02T01:38:00.335Z,17.48
2018-09-02T01:38:26.468Z,17.46
2018-09-02T01:38:52.603Z,17.46
2018-09-02T01:39:18.756Z,17.48
2018-09-02T01:39:44.899Z,17.46
2018-09-02T01:40:11.588Z,17.45
2018-09-02T01:40:37.653Z,17.51
2018-09-02T01:41:03.786Z,17.44
2018-09-02T01:41:29.920Z,17.48
2018-09-02T01:41:56.050Z,17.46
2018-09-02T01:42:22.214Z,17.44
2018-09-02T01:42:48.352Z,17.41
2018-09-02T01:43:14.706Z,17.45
2018-09-02T01:43:41.184Z,17.44
2018-09-02T01:44:07.374Z,17.31
2018-09-02T01:44:33.509Z,17.46
2018-09-02T01:44:59.641Z,17.39
2018-09-02T01:45:25.773Z,17.45
2018-09-02T01:45:51.906Z,17.41
2018-09-02T01:46:18.061Z,17.42
2018-09-02T01:46:44.369Z,17.33
2018-09-02T01:47:10.572Z,17.41
2018-09-02T01:47:36.713Z,17.42
2018-09-02T01:48:02.853Z,17.41
2018-09-02T01:48:29.013Z,17.39
2018-09-02T01:48:55.149Z,17.48
2018-09-02T01:49:21.307Z,17.45
2018-09-02T01:49:47.461Z,17.46
2018-09-02T01:50:13.736Z,17.44
2018-09-02T01:50:40.153Z,17.44
2018-09-02T01:51:06.242Z,17.41
2018-09-02T01:51:32.375Z,17.48
2018-09-02T01:51:58.509Z,17.44
2018-09-02T01:52:24.650Z,17.38
2018-09-02T01:52:50.785Z,17.39
2018-09-02T01:53:17.287Z,17.38
2018-09-02T01:53:43.633Z,17.33
2018-09-02T01:54:09.909Z,17.31
2018-09-02T01:54:36.068Z,17.38
2018-09-02T01:55:02.207Z,17.33
2018-09-02T01:55:28.342Z,17.33
2018-09-02T01:55:54.495Z,17.33
2018-09-02T01:56:20.648Z,17.31
2018-09-02T01:56:46.783Z,17.29
2018-09-02T01:57:12.920Z,17.36
2018-09-02T01:57:39.053Z,17.36
2018-09-02T01:58:05.211Z,17.33
2018-09-02T01:58:31.367Z,17.34
2018-09-02T01:58:57.497Z,17.34
2018-09-02T01:59:23.646Z,17.38
2018-09-02T01:59:49.782Z,17.29
2018-09-02T02:00:15.965Z,17.38
2018-09-02T02:00:42.097Z,17.34
2018-09-02T02:01:08.231Z,17.27
2018-09-02T02:01:34.366Z,17.31
2018-09-02T02:02:00.492Z,17.26
2018-09-02T02:02:26.630Z,17.22
2018-09-02T02:02:52.768Z,17.14
2018-09-02T02:03:18.899Z,17.2
2018-09-02T02:03:45.033Z,17.16
2018-09-02T02:04:11.187Z,17.16
2018-09-02T02:04:37.321Z,17.16
2018-09-02T02:05:03.452Z,17.16
2018-09-02T02:05:29.583Z,17.22
2018-09-02T02:05:55.750Z,17.09
2018-09-02T02:06:21.890Z,17.19
2018-09-02T02:06:48.063Z,17.15
2018-09-02T02:07:14.190Z,17.23
2018-09-02T02:07:40.326Z,17.23
2018-09-02T02:08:06.458Z,17.22
2018-09-02T02:08:32.591Z,17.19
2018-09-02T02:08:58.727Z,17.12
2018-09-02T02:09:24.861Z,17.15
2018-09-02T02:09:51.000Z,17.19
2018-09-02T02:10:17.127Z,17.12
2018-09-02T02:10:43.261Z,17.08
2018-09-02T02:11:09.397Z,17.11
2018-09-02T02:11:35.535Z,17.09
2018-09-02T02:12:01.667Z,17.08
2018-09-02T02:12:27.828Z,17.08
2018-09-02T02:12:53.967Z,17.08
2018-09-02T02:13:20.100Z,17.12
2018-09-02T02:13:46.235Z,17.11
2018-09-02T02:14:12.421Z,17.04
2018-09-02T02:14:38.547Z,17.06
2018-09-02T02:15:04.685Z,17.12
2018-09-02T02:15:30.813Z,17.08
2018-09-02T02:15:56.940Z,17.09
2018-09-02T02:16:23.071Z,17.02
2018-09-02T02:16:49.201Z,17.09
2018-09-02T02:17:15.336Z,17.01
2018-09-02T02:17:41.489Z,17.01
2018-09-02T02:18:07.646Z,17.05
2018-09-02T02:18:33.797Z,17.02
2018-09-02T02:18:59.935Z,17.04
2018-09-02T02:19:26.082Z,17.01
2018-09-02T02:19:52.243Z,17.01
2018-09-02T02:20:18.365Z,16.97
2018-09-02T02:20:44.505Z,17.04
2018-09-02T02:21:10.662Z,17.05
2018-09-02T02:21:36.788Z,16.97
2018-09-02T02:22:02.919Z,16.89
2018-09-02T02:22:29.060Z,16.84
2018-09-02T02:22:55.188Z,17.02
2018-09-02T02:23:21.322Z,17.02
2018-09-02T02:23:47.474Z,17.02
2018-09-02T02:24:13.606Z,16.97
2018-09-02T02:24:39.764Z,17.06
2018-09-02T02:25:05.894Z,17.04
2018-09-02T02:25:32.027Z,16.97
2018-09-02T02:25:58.163Z,17.01
2018-09-02T02:26:24.319Z,17.06
2018-09-02T02:26:50.453Z,16.99
2018-09-02T02:27:16.586Z,16.97
2018-09-02T02:27:42.719Z,16.93
2018-09-02T02:28:08.872Z,16.99
2018-09-02T02:28:35.009Z,17.01
2018-09-02T02:29:01.140Z,16.93
2018-09-02T02:29:27.275Z,17.01
2018-09-02T02:29:53.403Z,17.04
2018-09-02T02:30:19.564Z,16.96
2018-09-02T02:30:45.706Z,16.97
2018-09-02T02:31:11.832Z,17.02
2018-09-02T02:31:38.001Z,16.94
2018-09-02T02:32:04.179Z,17.02
2018-09-02T02:32:30.336Z,17.01
2018-09-02T02:32:56.490Z,17.04
2018-09-02T02:33:22.632Z,16.94
2018-09-02T02:33:48.789Z,16.99
2018-09-02T02:34:14.928Z,16.91
2018-09-02T02:34:41.065Z,16.96
2018-09-02T02:35:07.195Z,16.89
2018-09-02T02:35:33.333Z,16.81
2018-09-02T02:35:59.467Z,16.94
2018-09-02T02:36:25.594Z,16.84
2018-09-02T02:36:51.738Z,16.9
2018-09-02T02:37:17.860Z,16.94
2018-09-02T02:37:43.996Z,16.93
2018-09-02T02:38:10.133Z,16.87
2018-09-02T02:38:36.293Z,16.93
2018-09-02T02:39:02.426Z,16.91
2018-09-02T02:39:28.582Z,16.89
2018-09-02T02:39:54.725Z,16.89
2018-09-02T02:40:20.855Z,16.84
2018-09-02T02:40:46.992Z,16.89
2018-09-02T02:41:13.140Z,16.86
2018-09-02T02:41:39.296Z,16.81
2018-09-02T02:42:05.454Z,16.84
2018-09-02T02:42:31.613Z,16.74
2018-09-02T02:42:57.743Z,16.76
2018-09-02T02:43:23.876Z,16.81
2018-09-02T02:43:50.004Z,16.79
2018-09-02T02:44:16.170Z,16.79
2018-09-02T02:44:42.301Z,16.86
2018-09-02T02:45:08.438Z,16.84
2018-09-02T02:45:34.597Z,16.89
2018-09-02T02:46:00.773Z,16.87
2018-09-02T02:46:26.908Z,16.86
2018-09-02T02:46:53.065Z,16.84
2018-09-02T02:47:19.213Z,16.9
2018-09-02T02:47:45.346Z,16.84
2018-09-02T02:48:11.482Z,16.86
2018-09-02T02:48:37.641Z,16.83
2018-09-02T02:49:03.772Z,16.79
2018-09-02T02:49:29.910Z,16.83
2018-09-02T02:49:56.084Z,16.81
2018-09-02T02:50:22.221Z,16.79
2018-09-02T02:50:48.352Z,16.83
2018-09-02T02:51:14.485Z,16.78
2018-09-02T02:51:40.641Z,16.81
2018-09-02T02:52:06.773Z,16.87
2018-09-02T02:52:32.920Z,16.84
2018-09-02T02:52:59.058Z,16.83
2018-09-02T02:53:25.195Z,16.81
2018-09-02T02:53:51.326Z,16.81
2018-09-02T02:54:17.489Z,16.83
2018-09-02T02:54:43.644Z,16.81
2018-09-02T02:55:09.800Z,16.79
2018-09-02T02:55:35.965Z,16.76
2018-09-02T02:56:02.093Z,16.81
2018-09-02T02:56:28.230Z,16.75
2018-09-02T02:56:54.363Z,16.84
2018-09-02T02:57:20.495Z,16.81
2018-09-02T02:57:46.655Z,16.81
2018-09-02T02:58:12.785Z,16.84
2018-09-02T02:58:38.917Z,16.81
2018-09-02T02:59:05.074Z,16.78
2018-09-02T02:59:31.208Z,16.76
2018-09-02T02:59:57.368Z,16.76
2018-09-02T03:00:23.528Z,16.81
2018-09-02T03:00:49.667Z,16.79
2018-09-02T03:01:15.810Z,16.79
2018-09-02T03:01:41.967Z,16.79
2018-09-02T03:02:08.105Z,16.84
2018-09-02T03:02:34.243Z,16.79
2018-09-02T03:03:00.422Z,16.81
2018-09-02T03:03:26.578Z,16.79
2018-09-02T03:03:52.711Z,16.76
2018-09-02T03:04:18.879Z,16.75
2018-09-02T03:04:45.038Z,16.75
2018-09-02T03:05:11.172Z,16.76
2018-09-02T03:05:37.310Z,16.78
2018-09-02T03:06:03.467Z,16.72
2018-09-02T03:06:29.598Z,16.72
2018-09-02T03:06:55.736Z,16.69
2018-09-02T03:07:21.870Z,16.71
2018-09-02T03:07:48.014Z,16.69
2018-09-02T03:08:14.180Z,16.68
2018-09-02T03:08:40.330Z,16.69
2018-09-02T03:09:06.489Z,16.78
2018-09-02T03:09:32.640Z,16.75
2018-09-02T03:09:58.778Z,16.81
2018-09-02T03:10:24.913Z,16.74
2018-09-02T03:10:51.160Z,16.76
2018-09-02T03:11:17.214Z,16.74
2018-09-02T03:11:43.371Z,16.72
2018-09-02T03:12:09.505Z,16.74
2018-09-02T03:12:35.634Z,16.66
2018-09-02T03:13:01.771Z,16.72
2018-09-02T03:13:27.910Z,16.74
2018-09-02T03:13:54.042Z,16.79
2018-09-02T03:14:20.197Z,16.78
2018-09-02T03:14:46.333Z,16.75
2018-09-02T03:15:12.463Z,16.74
2018-09-02T03:15:38.624Z,16.69
2018-09-02T03:16:04.751Z,16.76
2018-09-02T03:16:30.903Z,16.69
2018-09-02T03:16:57.055Z,16.71
2018-09-02T03:17:23.191Z,16.71
2018-09-02T03:17:49.320Z,16.69
2018-09-02T03:18:15.456Z,16.72
2018-09-02T03:18:41.605Z,16.69
2018-09-02T03:19:07.734Z,16.69
2018-09-02T03:19:33.867Z,16.71
2018-09-02T03:20:00.002Z,16.68
2018-09-02T03:20:26.135Z,16.71
2018-09-02T03:20:52.263Z,16.75
2018-09-02T03:21:18.403Z,16.71
2018-09-02T03:21:44.527Z,16.65
2018-09-02T03:22:10.697Z,16.75
2018-09-02T03:22:36.819Z,16.72
2018-09-02T03:23:02.951Z,16.61
2018-09-02T03:23:29.087Z,16.71
2018-09-02T03:23:55.240Z,16.72
2018-09-02T03:24:21.371Z,16.71
2018-09-02T03:24:47.505Z,16.74
2018-09-02T03:25:13.640Z,16.69
2018-09-02T03:25:39.774Z,16.69
2018-09-02T03:26:05.934Z,16.74
2018-09-02T03:26:32.069Z,16.75
2018-09-02T03:26:58.203Z,16.65
2018-09-02T03:27:24.342Z,16.65
2018-09-02T03:27:50.474Z,16.66
2018-09-02T03:28:16.604Z,16.74
2018-09-02T03:28:42.742Z,16.72
2018-09-02T03:29:08.876Z,16.75
2018-09-02T03:29:35.014Z,16.74
2018-09-02T03:30:01.144Z,16.74
2018-09-02T03:30:27.298Z,16.65
2018-09-02T03:30:53.492Z,16.72
2018-09-02T03:31:19.626Z,16.74
2018-09-02T03:31:45.798Z,16.81
2018-09-02T03:32:11.983Z,16.69
2018-09-02T03:32:38.107Z,16.79
2018-09-02T03:33:04.287Z,16.74
2018-09-02T03:33:30.423Z,16.72
2018-09-02T03:33:56.573Z,16.74
2018-09-02T03:34:22.700Z,16.74
2018-09-02T03:34:48.850Z,16.75
2018-09-02T03:35:14.987Z,16.75
2018-09-02T03:35:41.118Z,16.81
2018-09-02T03:36:07.253Z,16.81
2018-09-02T03:36:33.422Z,16.86
2018-09-02T03:36:59.572Z,16.72
2018-09-02T03:37:25.752Z,16.78
2018-09-02T03:37:51.885Z,16.81
2018-09-02T03:38:18.016Z,16.75
2018-09-02T03:38:44.180Z,16.79
2018-09-02T03:39:10.314Z,16.76
2018-09-02T03:39:36.451Z,16.75
2018-09-02T03:40:02.584Z,16.75
2018-09-02T03:40:28.716Z,16.74
2018-09-02T03:40:54.858Z,16.69
2018-09-02T03:41:20.985Z,16.69
2018-09-02T03:41:47.153Z,16.78
2018-09-02T03:42:13.285Z,16.81
2018-09-02T03:42:39.416Z,16.79
2018-09-02T03:43:05.551Z,16.81
2018-09-02T03:43:31.686Z,16.83
2018-09-02T03:43:57.836Z,16.81
2018-09-02T03:44:23.973Z,16.75
2018-09-02T03:44:50.133Z,16.87
2018-09-02T03:45:16.258Z,16.83
2018-09-02T03:45:42.396Z,16.81
2018-09-02T03:46:08.524Z,16.78
2018-09-02T03:46:34.678Z,16.78
2018-09-02T03:47:00.828Z,16.83
2018-09-02T03:47:26.965Z,16.78
2018-09-02T03:47:53.098Z,16.81
2018-09-02T03:48:19.236Z,16.78
2018-09-02T03:48:45.365Z,16.75
2018-09-02T03:49:11.500Z,16.81
2018-09-02T03:49:37.650Z,16.79
2018-09-02T03:50:03.814Z,16.78
2018-09-02T03:50:29.950Z,16.81
2018-09-02T03:50:56.087Z,16.86
2018-09-02T03:51:22.241Z,16.81
2018-09-02T03:51:48.370Z,16.79
2018-09-02T03:52:14.504Z,16.81
2018-09-02T03:52:40.636Z,16.84
2018-09-02T03:53:06.773Z,16.76
2018-09-02T03:53:32.959Z,16.75
2018-09-02T03:53:59.091Z,16.74
2018-09-02T03:54:25.221Z,16.81
2018-09-02T03:54:51.392Z,16.79
2018-09-02T03:55:17.539Z,16.86
2018-09-02T03:55:43.679Z,16.81
2018-09-02T03:56:09.813Z,16.79
2018-09-02T03:56:35.964Z,16.78
2018-09-02T03:57:02.124Z,16.74
2018-09-02T03:57:28.270Z,16.86
2018-09-02T03:57:54.407Z,16.81
2018-09-02T03:58:20.565Z,16.9
2018-09-02T03:58:46.701Z,16.78
2018-09-02T03:59:12.833Z,16.84
2018-09-02T03:59:38.972Z,16.81
2018-09-02T04:00:05.125Z,16.81
2018-09-02T04:00:31.277Z,16.87
2018-09-02T04:00:57.454Z,16.81
2018-09-02T04:01:23.589Z,16.78
2018-09-02T04:01:49.766Z,16.83
2018-09-02T04:02:15.919Z,16.83
2018-09-02T04:02:42.076Z,16.79
2018-09-02T04:03:08.213Z,16.78
2018-09-02T04:03:34.389Z,16.81
2018-09-02T04:04:00.526Z,16.83
2018-09-02T04:04:26.684Z,16.84
2018-09-02T04:04:52.815Z,16.87
2018-09-02T04:05:18.958Z,16.86
2018-09-02T04:05:45.114Z,16.84
2018-09-02T04:06:11.248Z,16.81
2018-09-02T04:06:37.386Z,16.86
2018-09-02T04:07:03.559Z,16.87
2018-09-02T04:07:29.702Z,16.89
2018-09-02T04:07:55.831Z,16.87
2018-09-02T04:08:21.962Z,16.87
2018-09-02T04:08:48.121Z,16.89
2018-09-02T04:09:14.251Z,16.9
2018-09-02T04:09:40.409Z,16.91
2018-09-02T04:10:06.545Z,16.87
2018-09-02T04:10:32.676Z,16.94
2018-09-02T04:10:58.873Z,16.93
2018-09-02T04:11:25.089Z,16.99
2018-09-02T04:11:51.165Z,16.87
2018-09-02T04:12:17.299Z,16.86
2018-09-02T04:12:43.438Z,16.89
2018-09-02T04:13:09.618Z,16.9
2018-09-02T04:13:35.756Z,16.9
2018-09-02T04:14:01.907Z,16.83
2018-09-02T04:14:28.070Z,16.86
2018-09-02T04:14:54.204Z,16.87
2018-09-02T04:15:20.365Z,16.83
2018-09-02T04:15:46.567Z,16.87
2018-09-02T04:16:12.717Z,16.93
2018-09-02T04:16:38.855Z,16.86
2018-09-02T04:17:05.012Z,16.89
2018-09-02T04:17:31.148Z,16.9
2018-09-02T04:17:57.311Z,16.89
2018-09-02T04:18:23.443Z,16.9
2018-09-02T04:18:49.573Z,16.94
2018-09-02T04:19:15.711Z,16.83
2018-09-02T04:19:41.869Z,16.83
2018-09-02T04:20:08.002Z,16.87
2018-09-02T04:20:34.162Z,16.81
2018-09-02T04:21:00.295Z,16.81
2018-09-02T04:21:26.434Z,16.83
2018-09-02T04:21:52.594Z,16.89
2018-09-02T04:22:18.734Z,16.86
2018-09-02T04:22:44.870Z,16.84
2018-09-02T04:23:11.034Z,16.9
2018-09-02T04:23:37.164Z,16.87
2018-09-02T04:24:03.344Z,16.86
2018-09-02T04:24:29.510Z,16.86
2018-09-02T04:24:55.675Z,16.86
2018-09-02T04:25:21.818Z,16.86
2018-09-02T04:25:47.952Z,16.81
2018-09-02T04:26:14.108Z,16.79
2018-09-02T04:26:40.237Z,16.81
2018-09-02T04:27:06.367Z,16.79
2018-09-02T04:27:32.504Z,16.84
2018-09-02T04:27:58.626Z,16.86
2018-09-02T04:28:24.757Z,16.78
2018-09-02T04:28:50.937Z,16.79
2018-09-02T04:29:17.071Z,16.76
2018-09-02T04:29:43.225Z,16.83
2018-09-02T04:30:09.359Z,16.79
2018-09-02T04:30:35.494Z,16.75
2018-09-02T04:31:01.634Z,16.79
2018-09-02T04:31:27.790Z,16.81
2018-09-02T04:31:53.928Z,16.72
2018-09-02T04:32:20.067Z,16.76
2018-09-02T04:32:46.246Z,16.75
2018-09-02T04:33:12.382Z,16.72
2018-09-02T04:33:38.602Z,16.71
2018-09-02T04:34:04.667Z,16.79
2018-09-02T04:34:30.835Z,16.68
2018-09-02T04:34:56.989Z,16.69
2018-09-02T04:35:23.166Z,16.66
2018-09-02T04:35:49.262Z,16.79
2018-09-02T04:36:15.410Z,16.71
2018-09-02T04:36:41.538Z,16.74
2018-09-02T04:37:07.672Z,16.68
2018-09-02T04:37:33.809Z,16.74
2018-09-02T04:37:59.947Z,16.72
2018-09-02T04:38:26.105Z,16.64
2018-09-02T04:38:52.310Z,16.72
2018-09-02T04:39:18.449Z,16.65
2018-09-02T04:39:44.617Z,16.68
2018-09-02T04:40:10.773Z,16.75
2018-09-02T04:40:36.929Z,16.68
2018-09-02T04:41:03.086Z,16.66
2018-09-02T04:41:29.238Z,16.66
2018-09-02T04:41:55.370Z,16.66
2018-09-02T04:42:21.547Z,16.6
2018-09-02T04:42:47.683Z,16.64
2018-09-02T04:43:13.822Z,16.66
2018-09-02T04:43:39.949Z,16.72
2018-09-02T04:44:06.081Z,16.68
2018-09-02T04:44:32.247Z,16.71
2018-09-02T04:44:58.382Z,16.66
2018-09-02T04:45:24.551Z,16.58
2018-09-02T04:45:50.671Z,16.57
2018-09-02T04:46:16.799Z,16.58
2018-09-02T04:46:42.957Z,16.65
2018-09-02T04:47:09.092Z,16.61
2018-09-02T04:47:35.235Z,16.58
2018-09-02T04:48:01.364Z,16.58
2018-09-02T04:48:27.501Z,16.6
2018-09-02T04:48:53.629Z,16.58
2018-09-02T04:49:19.838Z,16.61
2018-09-02T04:49:45.964Z,16.65
2018-09-02T04:50:12.093Z,16.51
2018-09-02T04:50:38.256Z,16.58
2018-09-02T04:51:04.410Z,16.64
2018-09-02T04:51:30.594Z,16.57
2018-09-02T04:51:56.726Z,16.6
2018-09-02T04:52:22.900Z,16.58
2018-09-02T04:52:49.034Z,16.6
2018-09-02T04:53:15.170Z,16.56
2018-09-02T04:53:41.303Z,16.6
2018-09-02T04:54:07.506Z,16.57
2018-09-02T04:54:33.632Z,16.65
2018-09-02T04:54:59.773Z,16.58
2018-09-02T04:55:25.907Z,16.58
2018-09-02T04:55:52.054Z,16.56
2018-09-02T04:56:18.222Z,16.61
2018-09-02T04:56:44.365Z,16.61
2018-09-02T04:57:10.503Z,16.65
2018-09-02T04:57:36.659Z,16.61
2018-09-02T04:58:02.796Z,16.56
2018-09-02T04:58:28.931Z,16.61
2018-09-02T04:58:55.067Z,16.61
2018-09-02T04:59:21.273Z,16.54
2018-09-02T04:59:47.367Z,16.53
2018-09-02T05:00:13.532Z,16.64
2018-09-02T05:00:39.653Z,16.57
2018-09-02T05:01:05.787Z,16.58
2018-09-02T05:01:31.940Z,16.65
2018-09-02T05:01:58.072Z,16.57
2018-09-02T05:02:24.206Z,16.61
2018-09-02T05:02:50.344Z,16.61
2018-09-02T05:03:16.502Z,16.57
2018-09-02T05:03:42.639Z,16.57
2018-09-02T05:04:08.791Z,16.65
2018-09-02T05:04:34.956Z,16.66
2018-09-02T05:05:01.089Z,16.65
2018-09-02T05:05:27.223Z,16.69
2018-09-02T05:05:53.351Z,16.56
2018-09-02T05:06:19.507Z,16.61
2018-09-02T05:06:45.669Z,16.58
2018-09-02T05:07:11.801Z,16.58
2018-09-02T05:07:37.958Z,16.53
2018-09-02T05:08:04.094Z,16.58
2018-09-02T05:08:30.229Z,16.5
2018-09-02T05:08:56.352Z,16.54
2018-09-02T05:09:22.514Z,16.58
2018-09-02T05:09:48.644Z,16.61
2018-09-02T05:10:14.804Z,16.6
2018-09-02T05:10:40.962Z,16.61
2018-09-02T05:11:07.100Z,16.58
2018-09-02T05:11:33.233Z,16.58
2018-09-02T05:11:59.363Z,16.57
2018-09-02T05:12:25.501Z,16.57
2018-09-02T05:12:51.652Z,16.56
2018-09-02T05:13:17.767Z,16.61
2018-09-02T05:13:43.904Z,16.6
2018-09-02T05:14:10.127Z,16.6
2018-09-02T05:14:36.205Z,16.57
2018-09-02T05:15:02.338Z,16.5
2018-09-02T05:15:28.469Z,16.61
2018-09-02T05:15:54.603Z,16.56
2018-09-02T05:16:20.732Z,16.6
2018-09-02T05:16:46.868Z,16.58
2018-09-02T05:17:12.998Z,16.6
2018-09-02T05:17:39.139Z,16.57
2018-09-02T05:18:05.278Z,16.51
2018-09-02T05:18:31.408Z,16.6
2018-09-02T05:18:57.565Z,16.61
2018-09-02T05:19:23.719Z,16.6
2018-09-02T05:19:49.885Z,16.61
2018-09-02T05:20:16.016Z,16.5
2018-09-02T05:20:42.196Z,16.6
2018-09-02T05:21:08.331Z,16.61
2018-09-02T05:21:34.465Z,16.58
2018-09-02T05:22:00.602Z,16.57
2018-09-02T05:22:26.770Z,16.6
2018-09-02T05:22:52.922Z,16.75
2018-09-02T05:23:19.054Z,16.71
2018-09-02T05:23:45.236Z,16.61
2018-09-02T05:24:11.396Z,16.64
2018-09-02T05:24:37.569Z,16.68
2018-09-02T05:25:03.696Z,16.66
2018-09-02T05:25:29.857Z,16.78
2018-09-02T05:25:55.989Z,16.75
2018-09-02T05:26:22.125Z,16.75
2018-09-02T05:26:48.287Z,16.74
2018-09-02T05:27:14.429Z,16.78
2018-09-02T05:27:40.584Z,16.79
2018-09-02T05:28:06.711Z,16.74
2018-09-02T05:28:32.870Z,16.74
2018-09-02T05:28:59.039Z,16.69
2018-09-02T05:29:25.166Z,16.72
2018-09-02T05:29:51.323Z,16.74
2018-09-02T05:30:17.459Z,16.72
2018-09-02T05:30:43.591Z,16.74
2018-09-02T05:31:09.721Z,16.72
2018-09-02T05:31:35.853Z,16.74
2018-09-02T05:32:01.985Z,16.69
2018-09-02T05:32:28.125Z,16.69
2018-09-02T05:32:54.259Z,16.74
2018-09-02T05:33:20.396Z,16.79
2018-09-02T05:33:46.533Z,16.79
2018-09-02T05:34:12.655Z,16.76
2018-09-02T05:34:38.849Z,16.79
2018-09-02T05:35:05.005Z,16.83
2018-09-02T05:35:31.166Z,16.81
2018-09-02T05:35:57.300Z,16.89
2018-09-02T05:36:23.433Z,16.94
2018-09-02T05:36:49.576Z,16.93
2018-09-02T05:37:15.732Z,16.87
2018-09-02T05:37:41.862Z,16.89